sensor_id;sensor_type;location;lat;lon;timestamp;P1;durP1;ratioP1;P2;durP2;ratioP2
73508;SDS011;72120;54.964;73.444;2023-10-19T00:00:55;14.48;;;4.68;;
73508;SDS011;72120;54.964;73.444;2023-10-19T00:03:26;9.00;;;4.88;;
73508;SDS011;72120;54.964;73.444;2023-10-19T00:05:55;10.85;;;4.50;;
73508;SDS011;72120;54.964;73.444;2023-10-19T00:08:26;13.00;;;4.80;;
73508;SDS011;72120;54.964;73.444;2023-10-19T00:11:02;21.73;;;11.07;;
73508;SDS011;72120;54.964;73.444;2023-10-19T00:13:34;12.63;;;5.32;;
73508;SDS011;72120;54.964;73.444;2023-10-19T00:16:05;15.27;;;5.30;;
73508;SDS011;72120;54.964;73.444;2023-10-19T00:18:50;8.90;;;4.93;;
73508;SDS011;72120;54.964;73.444;2023-10-19T00:21:18;8.63;;;4.18;;
73508;SDS011;72120;54.964;73.444;2023-10-19T00:23:46;9.68;;;4.25;;
73508;SDS011;72120;54.964;73.444;2023-10-19T00:26:14;9.27;;;3.92;;
73508;SDS011;72120;54.964;73.444;2023-10-19T00:28:53;8.73;;;4.32;;
73508;SDS011;72120;54.964;73.444;2023-10-19T00:31:23;12.43;;;4.70;;
73508;SDS011;72120;54.964;73.444;2023-10-19T00:33:56;13.57;;;6.05;;
73508;SDS011;72120;54.964;73.444;2023-10-19T00:36:27;10.80;;;5.72;;
73508;SDS011;72120;54.964;73.444;2023-10-19T00:38:57;11.93;;;6.32;;
73508;SDS011;72120;54.964;73.444;2023-10-19T00:41:25;13.43;;;6.88;;
73508;SDS011;72120;54.964;73.444;2023-10-19T00:43:55;14.00;;;6.88;;
73508;SDS011;72120;54.964;73.444;2023-10-19T00:46:38;15.60;;;6.32;;
73508;SDS011;72120;54.964;73.444;2023-10-19T00:49:07;13.35;;;6.47;;
73508;SDS011;72120;54.964;73.444;2023-10-19T00:51:48;23.85;;;8.68;;
73508;SDS011;72120;54.964;73.444;2023-10-19T00:54:25;18.52;;;9.35;;
73508;SDS011;72120;54.964;73.444;2023-10-19T00:57:03;22.70;;;9.20;;
73508;SDS011;72120;54.964;73.444;2023-10-19T00:59:37;16.05;;;7.45;;
73508;SDS011;72120;54.964;73.444;2023-10-19T01:02:09;16.08;;;8.07;;
73508;SDS011;72120;54.964;73.444;2023-10-19T01:04:48;32.05;;;13.98;;
73508;SDS011;72120;54.964;73.444;2023-10-19T01:07:17;25.10;;;11.90;;
73508;SDS011;72120;54.964;73.444;2023-10-19T01:09:55;32.00;;;13.15;;
73508;SDS011;72120;54.964;73.444;2023-10-19T01:12:26;20.60;;;8.88;;
73508;SDS011;72120;54.964;73.444;2023-10-19T01:15:03;24.33;;;12.70;;
73508;SDS011;72120;54.964;73.444;2023-10-19T01:17:32;23.52;;;10.35;;
73508;SDS011;72120;54.964;73.444;2023-10-19T01:20:11;27.48;;;9.32;;
73508;SDS011;72120;54.964;73.444;2023-10-19T01:22:49;13.68;;;6.72;;
73508;SDS011;72120;54.964;73.444;2023-10-19T01:28:27;8.75;;;3.58;;
73508;SDS011;72120;54.964;73.444;2023-10-19T01:31:13;11.82;;;4.38;;
73508;SDS011;72120;54.964;73.444;2023-10-19T01:34:07;9.38;;;4.75;;
73508;SDS011;72120;54.964;73.444;2023-10-19T01:36:35;17.88;;;6.95;;
73508;SDS011;72120;54.964;73.444;2023-10-19T01:39:10;18.92;;;7.97;;
73508;SDS011;72120;54.964;73.444;2023-10-19T01:41:40;12.15;;;5.53;;
73508;SDS011;72120;54.964;73.444;2023-10-19T01:44:07;11.25;;;4.28;;
73508;SDS011;72120;54.964;73.444;2023-10-19T01:46:39;14.32;;;4.47;;
73508;SDS011;72120;54.964;73.444;2023-10-19T01:49:05;10.85;;;4.63;;
73508;SDS011;72120;54.964;73.444;2023-10-19T01:51:34;12.57;;;4.70;;
73508;SDS011;72120;54.964;73.444;2023-10-19T01:54:05;14.68;;;4.95;;
73508;SDS011;72120;54.964;73.444;2023-10-19T01:56:33;13.23;;;4.95;;
73508;SDS011;72120;54.964;73.444;2023-10-19T01:59:02;13.05;;;4.72;;
73508;SDS011;72120;54.964;73.444;2023-10-19T02:01:35;13.27;;;5.38;;
73508;SDS011;72120;54.964;73.444;2023-10-19T02:04:04;13.73;;;6.13;;
73508;SDS011;72120;54.964;73.444;2023-10-19T02:06:32;13.60;;;6.05;;
73508;SDS011;72120;54.964;73.444;2023-10-19T02:11:51;13.57;;;5.97;;
73508;SDS011;72120;54.964;73.444;2023-10-19T02:14:22;14.95;;;5.90;;
73508;SDS011;72120;54.964;73.444;2023-10-19T02:16:54;20.52;;;6.78;;
73508;SDS011;72120;54.964;73.444;2023-10-19T02:19:29;18.33;;;6.93;;
73508;SDS011;72120;54.964;73.444;2023-10-19T02:21:56;16.10;;;6.65;;
73508;SDS011;72120;54.964;73.444;2023-10-19T02:24:24;25.48;;;7.90;;
73508;SDS011;72120;54.964;73.444;2023-10-19T02:26:55;18.88;;;7.72;;
73508;SDS011;72120;54.964;73.444;2023-10-19T02:29:23;18.50;;;8.50;;
73508;SDS011;72120;54.964;73.444;2023-10-19T02:31:51;17.17;;;7.78;;
73508;SDS011;72120;54.964;73.444;2023-10-19T02:34:34;25.50;;;8.70;;
73508;SDS011;72120;54.964;73.444;2023-10-19T02:37:06;21.42;;;8.98;;
73508;SDS011;72120;54.964;73.444;2023-10-19T02:39:36;20.65;;;8.60;;
73508;SDS011;72120;54.964;73.444;2023-10-19T02:42:02;20.98;;;8.88;;
73508;SDS011;72120;54.964;73.444;2023-10-19T02:44:29;25.05;;;9.50;;
73508;SDS011;72120;54.964;73.444;2023-10-19T02:46:56;20.33;;;9.15;;
73508;SDS011;72120;54.964;73.444;2023-10-19T02:49:25;24.50;;;9.57;;
73508;SDS011;72120;54.964;73.444;2023-10-19T02:51:57;76.07;;;36.67;;
73508;SDS011;72120;54.964;73.444;2023-10-19T02:54:33;35.92;;;13.05;;
73508;SDS011;72120;54.964;73.444;2023-10-19T02:56:59;28.27;;;10.88;;
73508;SDS011;72120;54.964;73.444;2023-10-19T02:59:26;23.48;;;9.93;;
73508;SDS011;72120;54.964;73.444;2023-10-19T03:01:59;20.35;;;8.55;;
73508;SDS011;72120;54.964;73.444;2023-10-19T03:04:39;17.77;;;8.48;;
73508;SDS011;72120;54.964;73.444;2023-10-19T03:07:07;21.73;;;9.38;;
73508;SDS011;72120;54.964;73.444;2023-10-19T03:09:33;17.27;;;8.48;;
73508;SDS011;72120;54.964;73.444;2023-10-19T03:12:03;17.92;;;8.55;;
73508;SDS011;72120;54.964;73.444;2023-10-19T03:14:33;17.05;;;7.90;;
73508;SDS011;72120;54.964;73.444;2023-10-19T03:17:00;13.80;;;7.38;;
73508;SDS011;72120;54.964;73.444;2023-10-19T03:19:27;19.58;;;7.70;;
73508;SDS011;72120;54.964;73.444;2023-10-19T03:21:54;27.55;;;11.85;;
73508;SDS011;72120;54.964;73.444;2023-10-19T03:24:21;18.58;;;7.32;;
73508;SDS011;72120;54.964;73.444;2023-10-19T03:27:09;18.75;;;7.78;;
73508;SDS011;72120;54.964;73.444;2023-10-19T03:29:51;17.05;;;7.22;;
73508;SDS011;72120;54.964;73.444;2023-10-19T03:32:22;24.40;;;8.45;;
73508;SDS011;72120;54.964;73.444;2023-10-19T03:35:03;26.25;;;8.82;;
73508;SDS011;72120;54.964;73.444;2023-10-19T03:37:31;20.15;;;8.35;;
73508;SDS011;72120;54.964;73.444;2023-10-19T03:40:03;17.40;;;7.55;;
73508;SDS011;72120;54.964;73.444;2023-10-19T03:42:35;15.27;;;6.93;;
73508;SDS011;72120;54.964;73.444;2023-10-19T03:45:07;37.63;;;9.80;;
73508;SDS011;72120;54.964;73.444;2023-10-19T03:47:40;31.40;;;9.57;;
73508;SDS011;72120;54.964;73.444;2023-10-19T03:50:09;21.38;;;7.70;;
73508;SDS011;72120;54.964;73.444;2023-10-19T03:52:40;26.35;;;7.93;;
73508;SDS011;72120;54.964;73.444;2023-10-19T03:55:07;14.88;;;6.97;;
73508;SDS011;72120;54.964;73.444;2023-10-19T04:00:24;15.73;;;6.38;;
73508;SDS011;72120;54.964;73.444;2023-10-19T04:02:52;18.73;;;6.10;;
73508;SDS011;72120;54.964;73.444;2023-10-19T04:05:19;17.40;;;6.10;;
73508;SDS011;72120;54.964;73.444;2023-10-19T04:07:50;15.88;;;4.85;;
73508;SDS011;72120;54.964;73.444;2023-10-19T04:10:20;13.25;;;4.65;;
73508;SDS011;72120;54.964;73.444;2023-10-19T04:13:04;15.23;;;5.18;;
73508;SDS011;72120;54.964;73.444;2023-10-19T04:15:36;11.45;;;4.30;;
73508;SDS011;72120;54.964;73.444;2023-10-19T04:18:07;12.70;;;4.15;;
73508;SDS011;72120;54.964;73.444;2023-10-19T04:20:36;11.07;;;4.38;;
73508;SDS011;72120;54.964;73.444;2023-10-19T04:23:15;13.70;;;4.22;;
73508;SDS011;72120;54.964;73.444;2023-10-19T04:25:44;10.27;;;4.13;;
73508;SDS011;72120;54.964;73.444;2023-10-19T04:28:12;8.50;;;3.83;;
73508;SDS011;72120;54.964;73.444;2023-10-19T04:30:46;11.52;;;4.47;;
73508;SDS011;72120;54.964;73.444;2023-10-19T04:33:14;10.80;;;4.38;;
73508;SDS011;72120;54.964;73.444;2023-10-19T04:35:42;12.00;;;4.53;;
73508;SDS011;72120;54.964;73.444;2023-10-19T04:38:08;11.68;;;5.00;;
73508;SDS011;72120;54.964;73.444;2023-10-19T04:40:35;16.58;;;4.72;;
73508;SDS011;72120;54.964;73.444;2023-10-19T04:43:01;12.45;;;4.30;;
73508;SDS011;72120;54.964;73.444;2023-10-19T04:45:31;12.23;;;3.90;;
73508;SDS011;72120;54.964;73.444;2023-10-19T04:48:00;8.32;;;3.60;;
73508;SDS011;72120;54.964;73.444;2023-10-19T04:50:35;12.13;;;3.65;;
73508;SDS011;72120;54.964;73.444;2023-10-19T04:53:01;16.98;;;3.70;;
73508;SDS011;72120;54.964;73.444;2023-10-19T04:55:30;8.73;;;3.75;;
73508;SDS011;72120;54.964;73.444;2023-10-19T04:57:56;11.85;;;4.13;;
73508;SDS011;72120;54.964;73.444;2023-10-19T05:00:23;16.92;;;4.35;;
73508;SDS011;72120;54.964;73.444;2023-10-19T05:02:50;15.55;;;4.40;;
73508;SDS011;72120;54.964;73.444;2023-10-19T05:05:19;12.88;;;4.93;;
73508;SDS011;72120;54.964;73.444;2023-10-19T05:07:48;10.95;;;3.90;;
73508;SDS011;72120;54.964;73.444;2023-10-19T05:10:14;12.80;;;6.20;;
73508;SDS011;72120;54.964;73.444;2023-10-19T05:12:41;12.82;;;3.70;;
73508;SDS011;72120;54.964;73.444;2023-10-19T05:15:07;10.48;;;4.03;;
73508;SDS011;72120;54.964;73.444;2023-10-19T05:17:36;13.13;;;4.05;;
73508;SDS011;72120;54.964;73.444;2023-10-19T05:20:02;13.52;;;3.53;;
73508;SDS011;72120;54.964;73.444;2023-10-19T05:22:33;12.30;;;3.00;;
73508;SDS011;72120;54.964;73.444;2023-10-19T05:24:59;10.90;;;2.80;;
73508;SDS011;72120;54.964;73.444;2023-10-19T05:27:26;11.70;;;3.65;;
73508;SDS011;72120;54.964;73.444;2023-10-19T05:29:53;10.52;;;3.70;;
73508;SDS011;72120;54.964;73.444;2023-10-19T05:32:19;7.55;;;3.20;;
73508;SDS011;72120;54.964;73.444;2023-10-19T05:34:45;12.30;;;3.17;;
73508;SDS011;72120;54.964;73.444;2023-10-19T05:37:11;11.05;;;3.42;;
73508;SDS011;72120;54.964;73.444;2023-10-19T05:39:38;11.38;;;3.42;;
73508;SDS011;72120;54.964;73.444;2023-10-19T05:42:04;11.18;;;2.75;;
73508;SDS011;72120;54.964;73.444;2023-10-19T05:44:31;8.85;;;2.10;;
73508;SDS011;72120;54.964;73.444;2023-10-19T05:46:58;9.60;;;2.80;;
73508;SDS011;72120;54.964;73.444;2023-10-19T05:49:27;16.67;;;2.10;;
73508;SDS011;72120;54.964;73.444;2023-10-19T05:52:03;23.27;;;2.20;;
73508;SDS011;72120;54.964;73.444;2023-10-19T05:54:29;10.25;;;1.83;;
73508;SDS011;72120;54.964;73.444;2023-10-19T05:56:55;9.23;;;2.22;;
73508;SDS011;72120;54.964;73.444;2023-10-19T05:59:22;4.93;;;1.60;;
73508;SDS011;72120;54.964;73.444;2023-10-19T06:01:52;6.68;;;1.85;;
73508;SDS011;72120;54.964;73.444;2023-10-19T06:06:49;13.23;;;2.60;;
73508;SDS011;72120;54.964;73.444;2023-10-19T06:09:15;7.78;;;2.20;;
73508;SDS011;72120;54.964;73.444;2023-10-19T06:11:42;6.78;;;2.15;;
73508;SDS011;72120;54.964;73.444;2023-10-19T06:14:13;8.20;;;2.20;;
73508;SDS011;72120;54.964;73.444;2023-10-19T06:16:40;4.85;;;2.13;;
73508;SDS011;72120;54.964;73.444;2023-10-19T06:19:08;6.05;;;1.73;;
73508;SDS011;72120;54.964;73.444;2023-10-19T06:21:36;6.93;;;2.55;;
73508;SDS011;72120;54.964;73.444;2023-10-19T06:24:02;12.32;;;2.00;;
73508;SDS011;72120;54.964;73.444;2023-10-19T06:26:28;10.77;;;1.98;;
73508;SDS011;72120;54.964;73.444;2023-10-19T06:28:57;8.30;;;2.30;;
73508;SDS011;72120;54.964;73.444;2023-10-19T06:31:29;7.22;;;2.50;;
73508;SDS011;72120;54.964;73.444;2023-10-19T06:33:56;6.05;;;2.20;;
73508;SDS011;72120;54.964;73.444;2023-10-19T06:36:27;8.38;;;2.50;;
73508;SDS011;72120;54.964;73.444;2023-10-19T06:38:55;9.70;;;2.10;;
73508;SDS011;72120;54.964;73.444;2023-10-19T06:41:21;4.25;;;1.58;;
73508;SDS011;72120;54.964;73.444;2023-10-19T06:46:13;5.13;;;2.17;;
73508;SDS011;72120;54.964;73.444;2023-10-19T06:48:42;8.27;;;1.95;;
73508;SDS011;72120;54.964;73.444;2023-10-19T06:51:08;8.13;;;2.55;;
73508;SDS011;72120;54.964;73.444;2023-10-19T06:53:35;6.00;;;1.95;;
73508;SDS011;72120;54.964;73.444;2023-10-19T06:56:01;6.30;;;1.80;;
73508;SDS011;72120;54.964;73.444;2023-10-19T06:58:29;5.53;;;1.88;;
73508;SDS011;72120;54.964;73.444;2023-10-19T07:00:59;6.78;;;2.20;;
73508;SDS011;72120;54.964;73.444;2023-10-19T07:03:31;6.88;;;2.13;;
73508;SDS011;72120;54.964;73.444;2023-10-19T07:05:57;6.20;;;2.20;;
73508;SDS011;72120;54.964;73.444;2023-10-19T07:08:24;9.85;;;2.13;;
73508;SDS011;72120;54.964;73.444;2023-10-19T07:10:52;11.77;;;2.25;;
73508;SDS011;72120;54.964;73.444;2023-10-19T07:13:19;7.75;;;2.30;;
73508;SDS011;72120;54.964;73.444;2023-10-19T07:15:47;16.73;;;3.90;;
73508;SDS011;72120;54.964;73.444;2023-10-19T07:18:17;7.32;;;2.70;;
73508;SDS011;72120;54.964;73.444;2023-10-19T07:20:43;6.43;;;2.65;;
73508;SDS011;72120;54.964;73.444;2023-10-19T07:23:14;15.38;;;3.72;;
73508;SDS011;72120;54.964;73.444;2023-10-19T07:25:52;9.68;;;2.03;;
73508;SDS011;72120;54.964;73.444;2023-10-19T07:28:22;5.45;;;2.10;;
73508;SDS011;72120;54.964;73.444;2023-10-19T07:31:16;8.30;;;1.90;;
73508;SDS011;72120;54.964;73.444;2023-10-19T07:34:19;9.77;;;2.45;;
73508;SDS011;72120;54.964;73.444;2023-10-19T07:36:53;14.50;;;2.20;;
73508;SDS011;72120;54.964;73.444;2023-10-19T07:39:20;7.95;;;2.15;;
73508;SDS011;72120;54.964;73.444;2023-10-19T07:41:50;5.28;;;2.10;;
73508;SDS011;72120;54.964;73.444;2023-10-19T07:44:17;4.70;;;1.85;;
73508;SDS011;72120;54.964;73.444;2023-10-19T07:46:43;4.03;;;1.75;;
73508;SDS011;72120;54.964;73.444;2023-10-19T07:49:10;3.55;;;2.00;;
73508;SDS011;72120;54.964;73.444;2023-10-19T07:51:46;3.58;;;1.90;;
73508;SDS011;72120;54.964;73.444;2023-10-19T07:54:26;4.72;;;2.00;;
73508;SDS011;72120;54.964;73.444;2023-10-19T07:56:54;8.80;;;2.08;;
73508;SDS011;72120;54.964;73.444;2023-10-19T07:59:20;5.80;;;2.10;;
73508;SDS011;72120;54.964;73.444;2023-10-19T08:01:49;6.80;;;2.40;;
73508;SDS011;72120;54.964;73.444;2023-10-19T08:04:16;4.10;;;1.98;;
73508;SDS011;72120;54.964;73.444;2023-10-19T08:06:44;7.45;;;2.10;;
73508;SDS011;72120;54.964;73.444;2023-10-19T08:09:10;4.60;;;2.08;;
73508;SDS011;72120;54.964;73.444;2023-10-19T08:14:07;5.43;;;1.83;;
73508;SDS011;72120;54.964;73.444;2023-10-19T08:16:34;9.90;;;2.10;;
73508;SDS011;72120;54.964;73.444;2023-10-19T08:19:00;6.82;;;2.20;;
73508;SDS011;72120;54.964;73.444;2023-10-19T08:21:26;6.00;;;2.20;;
73508;SDS011;72120;54.964;73.444;2023-10-19T08:23:54;5.13;;;2.20;;
73508;SDS011;72120;54.964;73.444;2023-10-19T08:26:21;5.57;;;2.05;;
73508;SDS011;72120;54.964;73.444;2023-10-19T08:28:50;9.05;;;2.30;;
73508;SDS011;72120;54.964;73.444;2023-10-19T08:31:19;5.25;;;2.15;;
73508;SDS011;72120;54.964;73.444;2023-10-19T08:33:51;4.88;;;2.00;;
73508;SDS011;72120;54.964;73.444;2023-10-19T08:36:22;4.57;;;1.92;;
73508;SDS011;72120;54.964;73.444;2023-10-19T08:38:51;4.50;;;2.13;;
73508;SDS011;72120;54.964;73.444;2023-10-19T08:41:19;5.05;;;2.17;;
73508;SDS011;72120;54.964;73.444;2023-10-19T08:43:46;5.22;;;2.20;;
73508;SDS011;72120;54.964;73.444;2023-10-19T08:46:23;6.78;;;2.53;;
73508;SDS011;72120;54.964;73.444;2023-10-19T08:48:50;8.48;;;2.88;;
73508;SDS011;72120;54.964;73.444;2023-10-19T08:51:20;7.90;;;3.10;;
73508;SDS011;72120;54.964;73.444;2023-10-19T08:53:49;11.27;;;3.47;;
73508;SDS011;72120;54.964;73.444;2023-10-19T08:56:20;9.02;;;3.08;;
73508;SDS011;72120;54.964;73.444;2023-10-19T08:58:50;9.55;;;2.47;;
73508;SDS011;72120;54.964;73.444;2023-10-19T09:01:19;12.05;;;2.10;;
73508;SDS011;72120;54.964;73.444;2023-10-19T09:03:45;5.88;;;2.22;;
73508;SDS011;72120;54.964;73.444;2023-10-19T09:08:40;12.77;;;3.22;;
73508;SDS011;72120;54.964;73.444;2023-10-19T09:11:07;6.65;;;1.90;;
73508;SDS011;72120;54.964;73.444;2023-10-19T09:14:07;8.68;;;2.30;;
73508;SDS011;72120;54.964;73.444;2023-10-19T09:16:29;7.03;;;1.98;;
73508;SDS011;72120;54.964;73.444;2023-10-19T09:18:56;5.45;;;2.15;;
73508;SDS011;72120;54.964;73.444;2023-10-19T09:21:30;6.38;;;2.85;;
73508;SDS011;72120;54.964;73.444;2023-10-19T09:24:09;5.82;;;2.00;;
73508;SDS011;72120;54.964;73.444;2023-10-19T09:26:37;7.03;;;2.25;;
73508;SDS011;72120;54.964;73.444;2023-10-19T09:29:03;7.65;;;3.15;;
73508;SDS011;72120;54.964;73.444;2023-10-19T09:31:30;5.10;;;2.05;;
73508;SDS011;72120;54.964;73.444;2023-10-19T09:36:24;5.78;;;2.10;;
73508;SDS011;72120;54.964;73.444;2023-10-19T09:38:53;7.13;;;2.40;;
73508;SDS011;72120;54.964;73.444;2023-10-19T09:41:24;10.00;;;2.85;;
73508;SDS011;72120;54.964;73.444;2023-10-19T09:44:04;9.20;;;2.00;;
73508;SDS011;72120;54.964;73.444;2023-10-19T09:46:38;10.43;;;2.40;;
73508;SDS011;72120;54.964;73.444;2023-10-19T09:49:10;8.93;;;2.10;;
73508;SDS011;72120;54.964;73.444;2023-10-19T09:51:52;5.22;;;2.28;;
73508;SDS011;72120;54.964;73.444;2023-10-19T09:54:30;5.88;;;2.30;;
73508;SDS011;72120;54.964;73.444;2023-10-19T09:57:08;4.43;;;2.05;;
73508;SDS011;72120;54.964;73.444;2023-10-19T09:59:43;3.72;;;2.00;;
73508;SDS011;72120;54.964;73.444;2023-10-19T10:02:12;9.18;;;2.60;;
73508;SDS011;72120;54.964;73.444;2023-10-19T10:04:43;9.57;;;2.60;;
73508;SDS011;72120;54.964;73.444;2023-10-19T10:07:15;5.30;;;2.08;;
73508;SDS011;72120;54.964;73.444;2023-10-19T10:09:43;4.22;;;2.00;;
73508;SDS011;72120;54.964;73.444;2023-10-19T10:12:22;5.07;;;1.90;;
73508;SDS011;72120;54.964;73.444;2023-10-19T10:17:25;9.30;;;1.80;;
73508;SDS011;72120;54.964;73.444;2023-10-19T10:19:55;8.07;;;2.30;;
73508;SDS011;72120;54.964;73.444;2023-10-19T10:23:15;4.57;;;1.58;;
73508;SDS011;72120;54.964;73.444;2023-10-19T10:25:44;7.90;;;1.90;;
73508;SDS011;72120;54.964;73.444;2023-10-19T10:28:14;9.98;;;2.40;;
73508;SDS011;72120;54.964;73.444;2023-10-19T10:33:45;7.07;;;2.22;;
73508;SDS011;72120;54.964;73.444;2023-10-19T10:36:18;6.68;;;2.70;;
73508;SDS011;72120;54.964;73.444;2023-10-19T10:38:45;5.63;;;2.63;;
73508;SDS011;72120;54.964;73.444;2023-10-19T10:41:22;9.00;;;2.47;;
73508;SDS011;72120;54.964;73.444;2023-10-19T10:43:55;5.93;;;1.70;;
73508;SDS011;72120;54.964;73.444;2023-10-19T10:46:27;8.90;;;2.30;;
73508;SDS011;72120;54.964;73.444;2023-10-19T10:49:08;6.10;;;2.00;;
73508;SDS011;72120;54.964;73.444;2023-10-19T10:51:35;9.23;;;3.25;;
73508;SDS011;72120;54.964;73.444;2023-10-19T10:54:02;7.75;;;2.35;;
73508;SDS011;72120;54.964;73.444;2023-10-19T10:56:30;4.63;;;2.45;;
73508;SDS011;72120;54.964;73.444;2023-10-19T10:58:57;6.60;;;2.20;;
73508;SDS011;72120;54.964;73.444;2023-10-19T11:01:30;6.03;;;2.10;;
73508;SDS011;72120;54.964;73.444;2023-10-19T11:04:10;6.40;;;2.03;;
73508;SDS011;72120;54.964;73.444;2023-10-19T11:06:49;3.47;;;1.92;;
73508;SDS011;72120;54.964;73.444;2023-10-19T11:09:15;4.75;;;2.00;;
73508;SDS011;72120;54.964;73.444;2023-10-19T11:11:45;3.83;;;1.67;;
73508;SDS011;72120;54.964;73.444;2023-10-19T11:14:11;6.40;;;1.98;;
73508;SDS011;72120;54.964;73.444;2023-10-19T11:16:38;2.95;;;1.58;;
73508;SDS011;72120;54.964;73.444;2023-10-19T11:19:11;3.75;;;2.03;;
73508;SDS011;72120;54.964;73.444;2023-10-19T11:21:37;5.40;;;2.10;;
73508;SDS011;72120;54.964;73.444;2023-10-19T11:24:05;8.00;;;3.63;;
73508;SDS011;72120;54.964;73.444;2023-10-19T11:26:37;3.90;;;2.33;;
73508;SDS011;72120;54.964;73.444;2023-10-19T11:29:07;7.07;;;2.58;;
73508;SDS011;72120;54.964;73.444;2023-10-19T11:31:35;7.18;;;2.78;;
73508;SDS011;72120;54.964;73.444;2023-10-19T11:34:05;5.80;;;2.50;;
73508;SDS011;72120;54.964;73.444;2023-10-19T11:36:34;8.27;;;2.70;;
73508;SDS011;72120;54.964;73.444;2023-10-19T11:39:00;8.98;;;3.13;;
73508;SDS011;72120;54.964;73.444;2023-10-19T11:41:27;7.43;;;3.40;;
73508;SDS011;72120;54.964;73.444;2023-10-19T11:43:53;5.00;;;2.78;;
73508;SDS011;72120;54.964;73.444;2023-10-19T11:46:20;5.75;;;2.65;;
73508;SDS011;72120;54.964;73.444;2023-10-19T11:48:51;9.40;;;2.80;;
73508;SDS011;72120;54.964;73.444;2023-10-19T11:51:17;6.70;;;3.45;;
73508;SDS011;72120;54.964;73.444;2023-10-19T11:53:43;9.25;;;2.83;;
73508;SDS011;72120;54.964;73.444;2023-10-19T11:56:10;7.40;;;3.92;;
73508;SDS011;72120;54.964;73.444;2023-10-19T11:58:42;5.55;;;3.03;;
73508;SDS011;72120;54.964;73.444;2023-10-19T12:01:09;9.98;;;3.60;;
73508;SDS011;72120;54.964;73.444;2023-10-19T12:03:41;10.43;;;4.05;;
73508;SDS011;72120;54.964;73.444;2023-10-19T12:06:12;13.88;;;6.25;;
73508;SDS011;72120;54.964;73.444;2023-10-19T12:12:29;11.35;;;5.40;;
73508;SDS011;72120;54.964;73.444;2023-10-19T12:15:28;10.85;;;4.90;;
73508;SDS011;72120;54.964;73.444;2023-10-19T12:18:05;9.70;;;5.50;;
73508;SDS011;72120;54.964;73.444;2023-10-19T12:20:52;12.95;;;5.40;;
73508;SDS011;72120;54.964;73.444;2023-10-19T12:23:30;17.88;;;5.65;;
73508;SDS011;72120;54.964;73.444;2023-10-19T12:25:57;11.98;;;5.30;;
73508;SDS011;72120;54.964;73.444;2023-10-19T12:28:38;9.02;;;4.43;;
73508;SDS011;72120;54.964;73.444;2023-10-19T12:31:05;12.95;;;4.93;;
73508;SDS011;72120;54.964;73.444;2023-10-19T12:36:13;22.27;;;8.15;;
73508;SDS011;72120;54.964;73.444;2023-10-19T12:38:57;12.13;;;5.75;;
73508;SDS011;72120;54.964;73.444;2023-10-19T12:41:24;12.70;;;5.90;;
73508;SDS011;72120;54.964;73.444;2023-10-19T12:43:51;16.88;;;7.20;;
73508;SDS011;72120;54.964;73.444;2023-10-19T12:46:20;19.52;;;6.90;;
73508;SDS011;72120;54.964;73.444;2023-10-19T12:48:55;13.25;;;5.28;;
73508;SDS011;72120;54.964;73.444;2023-10-19T12:52:46;14.55;;;5.38;;
73508;SDS011;72120;54.964;73.444;2023-10-19T12:55:26;10.25;;;4.88;;
73508;SDS011;72120;54.964;73.444;2023-10-19T12:59:14;14.55;;;5.05;;
73508;SDS011;72120;54.964;73.444;2023-10-19T13:01:56;14.90;;;5.65;;
73508;SDS011;72120;54.964;73.444;2023-10-19T13:05:46;14.55;;;5.45;;
73508;SDS011;72120;54.964;73.444;2023-10-19T13:09:34;17.98;;;6.25;;
73508;SDS011;72120;54.964;73.444;2023-10-19T13:13:22;13.68;;;5.35;;
73508;SDS011;72120;54.964;73.444;2023-10-19T13:20:05;11.75;;;4.63;;
73508;SDS011;72120;54.964;73.444;2023-10-19T13:22:53;9.55;;;4.28;;
73508;SDS011;72120;54.964;73.444;2023-10-19T13:25:50;11.45;;;4.60;;
73508;SDS011;72120;54.964;73.444;2023-10-19T13:28:26;10.13;;;4.18;;
73508;SDS011;72120;54.964;73.444;2023-10-19T13:31:17;11.13;;;4.85;;
73508;SDS011;72120;54.964;73.444;2023-10-19T13:34:16;10.85;;;4.18;;
73508;SDS011;72120;54.964;73.444;2023-10-19T13:36:43;9.43;;;4.20;;
73508;SDS011;72120;54.964;73.444;2023-10-19T13:41:53;9.40;;;3.58;;
73508;SDS011;72120;54.964;73.444;2023-10-19T13:44:38;15.55;;;7.88;;
73508;SDS011;72120;54.964;73.444;2023-10-19T13:47:05;10.60;;;3.55;;
73508;SDS011;72120;54.964;73.444;2023-10-19T13:49:32;9.68;;;3.47;;
73508;SDS011;72120;54.964;73.444;2023-10-19T13:51:58;9.30;;;3.90;;
73508;SDS011;72120;54.964;73.444;2023-10-19T13:56:51;10.75;;;4.70;;
73508;SDS011;72120;54.964;73.444;2023-10-19T13:59:20;11.95;;;5.22;;
73508;SDS011;72120;54.964;73.444;2023-10-19T14:01:49;11.88;;;4.78;;
73508;SDS011;72120;54.964;73.444;2023-10-19T14:04:20;13.25;;;6.00;;
73508;SDS011;72120;54.964;73.444;2023-10-19T14:07:15;11.90;;;4.20;;
73508;SDS011;72120;54.964;73.444;2023-10-19T14:10:43;16.60;;;5.00;;
73508;SDS011;72120;54.964;73.444;2023-10-19T14:15:40;13.20;;;5.05;;
73508;SDS011;72120;54.964;73.444;2023-10-19T14:18:08;9.50;;;5.05;;
73508;SDS011;72120;54.964;73.444;2023-10-19T14:20:36;10.05;;;4.53;;
73508;SDS011;72120;54.964;73.444;2023-10-19T14:23:04;13.43;;;5.40;;
73508;SDS011;72120;54.964;73.444;2023-10-19T14:25:35;12.30;;;5.68;;
73508;SDS011;72120;54.964;73.444;2023-10-19T14:28:06;12.60;;;6.05;;
73508;SDS011;72120;54.964;73.444;2023-10-19T14:30:51;12.70;;;6.25;;
73508;SDS011;72120;54.964;73.444;2023-10-19T14:33:21;13.60;;;6.45;;
73508;SDS011;72120;54.964;73.444;2023-10-19T14:36:05;18.58;;;8.25;;
73508;SDS011;72120;54.964;73.444;2023-10-19T14:38:38;20.67;;;8.80;;
73508;SDS011;72120;54.964;73.444;2023-10-19T14:41:10;24.80;;;11.13;;
73508;SDS011;72120;54.964;73.444;2023-10-19T14:43:48;33.42;;;13.52;;
73508;SDS011;72120;54.964;73.444;2023-10-19T14:46:48;26.60;;;12.45;;
73508;SDS011;72120;54.964;73.444;2023-10-19T14:49:37;28.75;;;12.00;;
73508;SDS011;72120;54.964;73.444;2023-10-19T14:52:05;28.00;;;13.45;;
73508;SDS011;72120;54.964;73.444;2023-10-19T14:54:34;31.67;;;12.65;;
73508;SDS011;72120;54.964;73.444;2023-10-19T14:57:03;27.00;;;12.48;;
73508;SDS011;72120;54.964;73.444;2023-10-19T14:59:33;28.08;;;11.75;;
73508;SDS011;72120;54.964;73.444;2023-10-19T15:02:03;24.33;;;10.50;;
73508;SDS011;72120;54.964;73.444;2023-10-19T15:04:38;21.98;;;10.63;;
73508;SDS011;72120;54.964;73.444;2023-10-19T15:07:05;25.73;;;11.00;;
73508;SDS011;72120;54.964;73.444;2023-10-19T15:09:36;27.98;;;11.85;;
73508;SDS011;72120;54.964;73.444;2023-10-19T15:12:02;24.10;;;11.35;;
73508;SDS011;72120;54.964;73.444;2023-10-19T15:14:31;28.17;;;12.02;;
73508;SDS011;72120;54.964;73.444;2023-10-19T15:16:57;26.38;;;11.63;;
73508;SDS011;72120;54.964;73.444;2023-10-19T15:19:23;32.08;;;12.63;;
73508;SDS011;72120;54.964;73.444;2023-10-19T15:21:49;26.85;;;12.65;;
73508;SDS011;72120;54.964;73.444;2023-10-19T15:24:16;26.02;;;11.38;;
73508;SDS011;72120;54.964;73.444;2023-10-19T15:26:42;30.35;;;11.60;;
73508;SDS011;72120;54.964;73.444;2023-10-19T15:29:09;28.35;;;12.57;;
73508;SDS011;72120;54.964;73.444;2023-10-19T15:31:35;29.27;;;11.25;;
73508;SDS011;72120;54.964;73.444;2023-10-19T15:34:04;23.85;;;10.75;;
73508;SDS011;72120;54.964;73.444;2023-10-19T15:36:31;23.60;;;10.73;;
73508;SDS011;72120;54.964;73.444;2023-10-19T15:38:57;24.20;;;9.55;;
73508;SDS011;72120;54.964;73.444;2023-10-19T15:41:23;22.45;;;8.65;;